Time;durP1;ratioP1;P1;durP2;ratioP2;P2;SDS_P1;SDS_P2;PMS_P1;PMS_P2;Temp;Humidity;BMP_temperature;BMP_pressure;BME280_temperature;BME280_humidity;BME280_pressure;Samples;Min_cycle;Max_cycle;Signal;HPM_P1;HPM_P2
2022/11/24 00:01:17;;;;;;;29.00;14.13;;;13.80;95.20;;;;;;6212217;23;20171;-78
2022/11/24 00:03:47;;;;;;;27.53;13.77;;;13.70;95.10;;;;;;6211891;23;20163;-78
2022/11/24 00:06:17;;;;;;;28.30;13.10;;;13.70;95.00;;;;;;6211389;23;20253;-77
2022/11/24 00:08:46;;;;;;;23.67;11.60;;;13.60;94.90;;;;;;6211154;23;20466;-78
2022/11/24 00:11:16;;;;;;;30.03;14.47;;;13.60;94.80;;;;;;6209854;23;20182;-78
2022/11/24 00:13:45;;;;;;;27.47;13.33;;;13.50;94.70;;;;;;6209291;23;20171;-78
2022/11/24 00:16:14;;;;;;;28.33;13.80;;;13.50;94.70;;;;;;6211525;23;20182;-78
2022/11/24 00:18:44;;;;;;;27.07;13.53;;;13.50;94.70;;;;;;6213186;23;20171;-78
2022/11/24 00:21:13;;;;;;;24.83;12.77;;;13.40;94.70;;;;;;6211306;23;20171;-78
2022/11/24 00:23:43;;;;;;;28.13;13.20;;;13.30;94.60;;;;;;6212845;23;20175;-78
2022/11/24 00:26:14;;;;;;;29.50;13.80;;;13.30;94.60;;;;;;6212330;23;20195;-78
2022/11/24 00:28:43;;;;;;;25.33;13.17;;;13.30;94.70;;;;;;6212807;23;20186;-78
2022/11/24 00:31:17;;;;;;;23.93;11.87;;;13.20;94.60;;;;;;6209088;23;20179;-78
2022/11/24 00:33:46;;;;;;;27.87;14.03;;;13.20;94.60;;;;;;6212261;23;20159;-78
2022/11/24 00:36:15;;;;;;;25.57;12.60;;;13.20;94.70;;;;;;6213200;23;20225;-78
2022/11/24 00:38:45;;;;;;;27.97;13.07;;;13.10;94.60;;;;;;6213333;23;20549;-79
2022/11/24 00:41:14;;;;;;;29.47;13.13;;;13.10;94.70;;;;;;6212830;23;20182;-78
2022/11/24 00:43:42;;;;;;;28.80;14.27;;;13.10;94.60;;;;;;6211646;23;20171;-78
2022/11/24 00:46:10;;;;;;;26.27;13.67;;;13.00;94.50;;;;;;6211410;23;20199;-77
2022/11/24 00:48:39;;;;;;;27.87;14.50;;;13.00;94.50;;;;;;6211272;23;20171;-78
2022/11/24 00:51:10;;;;;;;37.67;16.33;;;13.00;94.60;;;;;;6221362;23;20190;-78
2022/11/24 00:53:39;;;;;;;37.57;16.47;;;12.90;94.60;;;;;;6242026;23;20212;-79
2022/11/24 00:56:09;;;;;;;43.83;16.10;;;12.90;95.20;;;;;;6243172;23;20174;-79
2022/11/24 00:58:38;;;;;;;28.73;15.13;;;12.90;95.00;;;;;;6242779;23;20173;-80
2022/11/24 01:01:09;;;;;;;30.07;13.80;;;12.80;95.10;;;;;;6240638;23;20174;-79
2022/11/24 01:03:37;;;;;;;27.17;11.83;;;12.80;95.30;;;;;;6242826;23;20181;-79
2022/11/24 01:06:08;;;;;;;36.03;11.93;;;12.70;95.50;;;;;;6241870;23;20393;-79
2022/11/24 01:08:37;;;;;;;22.07;11.00;;;12.70;95.50;;;;;;6243628;23;20155;-80
2022/11/24 01:11:13;;;;;;;29.00;11.23;;;12.60;95.60;;;;;;6238501;23;20988;-79
2022/11/24 01:13:42;;;;;;;31.97;10.03;;;12.60;95.70;;;;;;6241972;23;20491;-79
2022/11/24 01:16:15;;;;;;;29.33;10.13;;;12.50;95.70;;;;;;6241634;23;20171;-82
2022/11/24 01:18:43;;;;;;;24.73;10.73;;;12.50;95.80;;;;;;6239958;23;20182;-81
2022/11/24 01:21:12;;;;;;;25.57;11.23;;;12.50;95.90;;;;;;6241729;23;20174;-80
2022/11/24 01:23:40;;;;;;;20.57;10.03;;;12.50;96.00;;;;;;6242379;23;20178;-81
2022/11/24 01:26:12;;;;;;;22.83;9.83;;;12.40;96.00;;;;;;6240543;23;20202;-82
2022/11/24 01:28:41;;;;;;;25.67;10.93;;;12.40;96.10;;;;;;6243006;23;20162;-81
2022/11/24 01:31:15;;;;;;;20.30;10.67;;;12.40;96.30;;;;;;6243223;23;20166;-81
2022/11/24 01:33:43;;;;;;;18.97;10.87;;;12.30;96.30;;;;;;6242040;23;20178;-81
2022/11/24 01:36:12;;;;;;;16.90;10.33;;;12.30;96.40;;;;;;6241490;23;20309;-81
2022/11/24 01:38:40;;;;;;;18.57;9.73;;;12.30;96.40;;;;;;6242583;23;20240;-82
2022/11/24 01:41:12;;;;;;;22.23;11.20;;;12.20;96.50;;;;;;6244024;23;20189;-83
2022/11/24 01:43:41;;;;;;;22.50;10.47;;;12.20;96.60;;;;;;6244602;23;20169;-81
2022/11/24 01:46:17;;;;;;;23.33;10.57;;;12.10;96.60;;;;;;6242659;23;20170;-83
2022/11/24 01:48:50;;;;;;;18.67;11.00;;;12.10;96.70;;;;;;6244026;23;20154;-81
2022/11/24 01:51:22;;;;;;;21.73;11.10;;;12.00;96.80;;;;;;6243223;23;20244;-85
2022/11/24 01:53:55;;;;;;;20.27;11.17;;;12.00;96.90;;;;;;6243628;23;20170;-82
2022/11/24 01:56:26;;;;;;;21.00;11.10;;;12.00;97.10;;;;;;6242933;23;20162;-82
2022/11/24 01:58:58;;;;;;;21.57;11.23;;;12.00;97.10;;;;;;6242639;23;20171;-81
2022/11/24 02:01:28;;;;;;;18.67;10.77;;;12.00;97.10;;;;;;6243183;23;20205;-80
2022/11/24 02:03:57;;;;;;;32.43;10.87;;;11.90;97.10;;;;;;6242819;23;20170;-80
2022/11/24 02:06:29;;;;;;;21.67;10.33;;;11.90;97.30;;;;;;6241578;23;20655;-80
2022/11/24 02:09:00;;;;;;;20.10;9.90;;;11.90;97.60;;;;;;6243566;23;20159;-81
2022/11/24 02:11:35;;;;;;;19.23;9.67;;;11.90;97.30;;;;;;6243683;23;20177;-82
2022/11/24 02:14:05;;;;;;;20.60;9.77;;;11.80;97.60;;;;;;6243247;23;20166;-81
2022/11/24 02:16:35;;;;;;;16.10;9.53;;;11.80;97.20;;;;;;6241622;23;20520;-81
2022/11/24 02:19:08;;;;;;;16.67;9.17;;;11.80;97.20;;;;;;6243680;23;20672;-80
2022/11/24 02:21:36;;;;;;;17.40;9.03;;;11.70;97.30;;;;;;6242781;23;20170;-82
2022/11/24 02:24:10;;;;;;;18.80;9.03;;;11.70;97.30;;;;;;6242842;23;20174;-81
2022/11/24 02:26:45;;;;;;;16.67;8.80;;;11.60;97.20;;;;;;6243472;23;20248;-79
2022/11/24 02:29:15;;;;;;;19.20;9.57;;;11.60;97.30;;;;;;6241693;23;20159;-81
2022/11/24 02:31:48;;;;;;;20.47;8.23;;;11.60;97.30;;;;;;6243391;23;20171;-81
2022/11/24 02:34:16;;;;;;;20.90;9.43;;;11.60;97.30;;;;;;6241797;23;20172;-80
2022/11/24 02:36:44;;;;;;;17.47;8.67;;;11.60;97.30;;;;;;6241903;23;20170;-80
2022/11/24 02:39:14;;;;;;;26.07;10.30;;;11.60;97.30;;;;;;6244066;23;20701;-80
2022/11/24 02:41:49;;;;;;;29.53;9.57;;;11.50;97.40;;;;;;6243776;23;20174;-80
2022/11/24 02:44:19;;;;;;;31.27;10.83;;;11.50;97.40;;;;;;6244498;23;20228;-78
2022/11/24 02:46:48;;;;;;;28.87;10.43;;;11.50;97.40;;;;;;6242084;23;20256;-79
2022/11/24 02:49:16;;;;;;;28.40;9.80;;;11.50;97.50;;;;;;6242315;23;20915;-77
2022/11/24 02:51:44;;;;;;;25.60;10.27;;;11.50;98.00;;;;;;6243149;23;20233;-79
2022/11/24 02:54:13;;;;;;;22.43;10.47;;;11.50;97.70;;;;;;6243474;23;20221;-78
2022/11/24 02:56:41;;;;;;;34.43;10.70;;;11.50;97.60;;;;;;6243209;23;20226;-79
2022/11/24 02:59:10;;;;;;;23.13;10.20;;;11.50;97.80;;;;;;6243007;23;20201;-78
2022/11/24 03:01:39;;;;;;;22.87;10.70;;;11.50;97.80;;;;;;6244105;23;20241;-78
2022/11/24 03:04:07;;;;;;;34.20;11.73;;;11.50;97.80;;;;;;6241437;23;20194;-80
2022/11/24 03:06:35;;;;;;;28.77;11.37;;;11.50;97.80;;;;;;6242084;23;20677;-79
2022/11/24 03:09:04;;;;;;;30.13;10.67;;;11.60;97.80;;;;;;6242642;23;20631;-79
2022/11/24 03:11:32;;;;;;;21.03;11.20;;;11.60;97.90;;;;;;6242835;23;20228;-79
2022/11/24 03:14:00;;;;;;;22.57;11.00;;;11.60;97.90;;;;;;6241808;23;20232;-79
2022/11/24 03:16:30;;;;;;;25.53;12.13;;;11.60;97.90;;;;;;6242580;23;20170;-80
2022/11/24 03:18:59;;;;;;;26.10;12.10;;;11.70;98.00;;;;;;6242607;23;20224;-79
2022/11/24 03:21:27;;;;;;;22.57;11.63;;;11.70;98.00;;;;;;6243843;23;20201;-80
2022/11/24 03:23:55;;;;;;;24.57;10.97;;;11.70;97.90;;;;;;6242776;23;20197;-80
2022/11/24 03:26:25;;;;;;;27.43;12.40;;;11.70;97.90;;;;;;6244060;23;20253;-80
2022/11/24 03:28:56;;;;;;;30.00;12.57;;;11.70;97.90;;;;;;6164008;23;20198;-79
2022/11/24 03:31:25;;;;;;;26.87;12.77;;;11.70;98.30;;;;;;6243681;23;20174;-81
2022/11/24 03:33:54;;;;;;;25.50;13.77;;;11.70;98.00;;;;;;6243020;23;20519;-81
2022/11/24 03:36:23;;;;;;;26.87;13.90;;;11.70;98.00;;;;;;6244212;23;20232;-80
2022/11/24 03:38:51;;;;;;;26.73;13.33;;;11.70;98.00;;;;;;6241094;23;20178;-82
2022/11/24 03:41:20;;;;;;;34.57;15.27;;;11.80;98.00;;;;;;6242600;23;20228;-82
2022/11/24 03:43:48;;;;;;;28.30;13.37;;;11.80;98.10;;;;;;6240858;23;20179;-79
2022/11/24 03:46:16;;;;;;;30.77;15.85;;;11.80;98.10;;;;;;6240136;23;20436;-80
2022/11/24 03:48:45;;;;;;;24.13;13.53;;;11.80;98.40;;;;;;6242634;23;20221;-80
2022/11/24 03:51:14;;;;;;;25.87;14.50;;;11.80;98.40;;;;;;6243412;23;20272;-80
2022/11/24 03:53:43;;;;;;;27.63;13.40;;;11.80;98.40;;;;;;6243228;23;20170;-80
2022/11/24 03:56:11;;;;;;;30.40;13.73;;;11.80;98.40;;;;;;6243553;23;20196;-80
2022/11/24 03:58:39;;;;;;;26.77;12.77;;;11.80;98.40;;;;;;6242360;23;20178;-81
2022/11/24 04:01:08;;;;;;;27.20;13.57;;;11.80;98.50;;;;;;6241891;23;20166;-80
2022/11/24 04:03:36;;;;;;;30.70;13.50;;;11.80;98.50;;;;;;6241762;23;20170;-81
2022/11/24 04:06:04;;;;;;;29.07;13.87;;;11.80;98.50;;;;;;6241647;23;20182;-79
2022/11/24 04:08:34;;;;;;;26.07;13.23;;;11.80;98.50;;;;;;6242344;23;20213;-78
2022/11/24 04:11:03;;;;;;;29.77;14.17;;;11.90;98.50;;;;;;6239814;23;20170;-80
2022/11/24 04:13:30;;;;;;;26.23;13.73;;;11.90;98.60;;;;;;6242950;23;20177;-81
2022/11/24 04:15:58;;;;;;;28.60;13.57;;;11.90;98.50;;;;;;6242057;23;20193;-82
2022/11/24 04:18:27;;;;;;;26.40;14.97;;;12.00;98.60;;;;;;6241581;23;20571;-79
2022/11/24 04:20:55;;;;;;;31.60;13.80;;;12.00;98.60;;;;;;6240132;23;20694;-78
2022/11/24 04:23:23;;;;;;;28.20;13.70;;;12.00;98.60;;;;;;6243514;23;20182;-79
2022/11/24 04:25:53;;;;;;;28.83;16.15;;;12.00;98.90;;;;;;6241131;23;20374;-79
2022/11/24 04:28:21;;;;;;;29.23;15.40;;;12.00;98.90;;;;;;6241080;23;20685;-80
2022/11/24 04:30:49;;;;;;;32.57;15.03;;;12.00;98.80;;;;;;6239537;23;20560;-77
2022/11/24 04:33:18;;;;;;;28.10;14.30;;;12.00;98.80;;;;;;6242735;23;20202;-79
2022/11/24 04:35:46;;;;;;;28.03;12.83;;;12.00;98.70;;;;;;6240874;23;20170;-80
2022/11/24 04:38:14;;;;;;;30.85;15.75;;;12.10;98.80;;;;;;6241969;23;20381;-79
2022/11/24 04:41:04;;;;;;;28.70;14.17;;;12.10;99.00;;;;;;6240360;23;20205;-80
2022/11/24 04:43:33;;;;;;;26.50;14.13;;;12.10;99.00;;;;;;6243237;23;20170;-79
2022/11/24 04:46:11;;;;;;;30.63;14.07;;;12.20;99.30;;;;;;6240267;23;20157;-80
2022/11/24 04:48:39;;;;;;;31.67;14.20;;;12.20;98.90;;;;;;6240235;23;20659;-81
2022/11/24 04:51:08;;;;;;;28.93;14.30;;;12.20;98.80;;;;;;6237826;23;20248;-80
2022/11/24 04:53:36;;;;;;;29.17;14.03;;;12.20;99.10;;;;;;6242592;23;20170;-80
2022/11/24 04:56:07;;;;;;;29.13;13.53;;;12.20;98.70;;;;;;6241923;23;20196;-80
2022/11/24 04:58:36;;;;;;;28.33;14.63;;;12.20;98.70;;;;;;6242312;23;20158;-79
2022/11/24 05:01:07;;;;;;;31.30;14.27;;;12.20;98.70;;;;;;6240137;23;20205;-79
2022/11/24 05:03:36;;;;;;;29.20;13.93;;;12.20;98.70;;;;;;6241843;23;20166;-80
2022/11/24 05:06:04;;;;;;;33.33;13.27;;;12.30;98.70;;;;;;6241174;23;20170;-80
2022/11/24 05:08:32;;;;;;;27.63;14.37;;;12.30;98.70;;;;;;6242270;23;20213;-79
2022/11/24 05:11:04;;;;;;;32.37;13.43;;;12.30;98.60;;;;;;6241203;23;20181;-78
2022/11/24 05:13:33;;;;;;;30.13;14.00;;;12.30;98.60;;;;;;6240666;23;20373;-79
2022/11/24 05:16:02;;;;;;;26.80;13.33;;;12.30;98.60;;;;;;6243706;23;20171;-78
2022/11/24 05:18:30;;;;;;;26.00;13.20;;;12.30;98.70;;;;;;6243838;23;20508;-81
2022/11/24 05:20:59;;;;;;;25.53;12.43;;;12.30;98.60;;;;;;6245493;23;20224;-78
2022/11/24 05:23:28;;;;;;;26.40;13.73;;;12.40;98.60;;;;;;6242917;23;20626;-78
2022/11/24 05:26:00;;;;;;;28.57;14.10;;;12.30;98.60;;;;;;6244635;23;20701;-78
2022/11/24 05:28:28;;;;;;;29.67;12.83;;;12.40;98.60;;;;;;6244597;23;20182;-79
2022/11/24 05:31:00;;;;;;;33.93;14.30;;;12.30;98.50;;;;;;6244279;23;20171;-79
2022/11/24 05:33:29;;;;;;;27.00;12.90;;;12.40;98.60;;;;;;6243701;23;20159;-79
2022/11/24 05:36:02;;;;;;;27.70;12.67;;;12.40;98.60;;;;;;6244381;23;20186;-79
2022/11/24 05:38:30;;;;;;;31.83;14.27;;;12.40;98.60;;;;;;6243399;23;20212;-80
2022/11/24 05:41:01;;;;;;;26.60;13.70;;;12.40;98.60;;;;;;6244058;23;20162;-80
2022/11/24 05:43:30;;;;;;;28.30;13.17;;;12.40;98.60;;;;;;6243247;23;20600;-79
2022/11/24 05:46:00;;;;;;;28.23;13.00;;;12.40;98.70;;;;;;6243554;23;20221;-79
2022/11/24 05:48:29;;;;;;;28.87;12.93;;;12.40;98.70;;;;;;6244163;23;20812;-79
2022/11/24 05:50:58;;;;;;;33.07;14.93;;;12.40;98.70;;;;;;6243637;23;20195;-79
2022/11/24 05:53:26;;;;;;;28.70;13.80;;;12.40;98.90;;;;;;6241408;23;20631;-78
2022/11/24 05:55:55;;;;;;;31.73;13.67;;;12.40;98.80;;;;;;6244400;23;20171;-78
2022/11/24 05:58:23;;;;;;;34.30;14.97;;;12.40;98.80;;;;;;6244687;23;20200;-78
2022/11/24 06:00:52;;;;;;;30.37;13.90;;;12.40;98.90;;;;;;6241797;23;20174;-81
2022/11/24 06:03:24;;;;;;;30.90;14.10;;;12.40;98.80;;;;;;6241493;22;20163;-81
2022/11/24 06:05:52;;;;;;;35.97;13.03;;;12.40;98.90;;;;;;6242784;23;20159;-79
2022/11/24 06:08:20;;;;;;;33.27;14.43;;;12.40;98.90;;;;;;6244174;23;20624;-79
2022/11/24 06:10:53;;;;;;;34.03;14.97;;;12.40;98.90;;;;;;6244552;23;20159;-78
2022/11/24 06:13:22;;;;;;;37.40;16.97;;;12.50;98.90;;;;;;6241881;23;20240;-79
2022/11/24 06:15:50;;;;;;;35.07;14.23;;;12.40;99.00;;;;;;6243492;23;20197;-79
2022/11/24 06:18:18;;;;;;;37.63;16.33;;;12.40;98.90;;;;;;6239580;23;20167;-78
2022/11/24 06:20:48;;;;;;;40.50;16.23;;;12.50;99.00;;;;;;6245084;23;20166;-78
2022/11/24 06:23:37;;;;;;;37.80;14.70;;;12.50;99.00;;;;;;6240813;23;20211;-78
2022/11/24 06:26:06;;;;;;;34.23;14.47;;;12.50;99.00;;;;;;6243012;23;20480;-77
2022/11/24 06:28:34;;;;;;;32.03;13.27;;;12.50;99.10;;;;;;6242457;23;20511;-79
2022/11/24 06:31:03;;;;;;;31.50;14.30;;;12.50;99.10;;;;;;6244097;23;20274;-77
2022/11/24 06:33:35;;;;;;;28.80;11.93;;;12.50;99.10;;;;;;6244035;23;20510;-78
2022/11/24 06:36:07;;;;;;;30.50;13.13;;;12.60;99.10;;;;;;6240861;23;20232;-78
2022/11/24 06:38:36;;;;;;;30.17;12.30;;;12.60;99.00;;;;;;6242097;23;20230;-78
2022/11/24 06:41:06;;;;;;;27.83;12.53;;;12.60;99.00;;;;;;6243451;23;20177;-81
2022/11/24 06:43:35;;;;;;;26.67;12.50;;;12.60;98.90;;;;;;6242827;23;20534;-80
2022/11/24 06:46:04;;;;;;;26.67;13.40;;;12.70;98.90;;;;;;6243574;23;20440;-78
2022/11/24 06:48:33;;;;;;;27.97;12.43;;;12.70;99.10;;;;;;6244760;23;20241;-79
2022/11/24 06:51:02;;;;;;;22.47;10.13;;;12.60;99.00;;;;;;6244188;23;20194;-80
2022/11/24 06:53:36;;;;;;;27.93;11.43;;;12.70;98.80;;;;;;6242741;23;20171;-77
2022/11/24 06:56:06;;;;;;;22.93;11.07;;;12.70;98.70;;;;;;6243968;23;20235;-78
2022/11/24 06:58:43;;;;;;;22.17;11.10;;;12.70;98.70;;;;;;6244635;23;20198;-78
2022/11/24 07:01:15;;;;;;;23.60;11.23;;;12.70;98.70;;;;;;6243943;23;20167;-79
2022/11/24 07:03:44;;;;;;;22.50;11.30;;;12.70;98.60;;;;;;6243732;23;20414;-79
2022/11/24 07:06:12;;;;;;;22.20;9.47;;;12.70;98.60;;;;;;6244735;23;20489;-81
2022/11/24 07:08:42;;;;;;;21.47;9.80;;;12.70;98.40;;;;;;6245073;23;20705;-81
2022/11/24 07:11:14;;;;;;;19.23;10.33;;;12.70;98.30;;;;;;6243672;23;20217;-80
2022/11/24 07:13:42;;;;;;;16.27;9.37;;;12.70;98.30;;;;;;6244272;23;20185;-81
2022/11/24 07:16:15;;;;;;;20.40;9.83;;;12.60;98.20;;;;;;6243519;23;20225;-78
2022/11/24 07:18:44;;;;;;;23.97;11.20;;;12.60;98.20;;;;;;6241735;23;20155;-81
2022/11/24 07:21:12;;;;;;;28.57;11.27;;;12.60;98.30;;;;;;6242597;23;20171;-80
2022/11/24 07:23:42;;;;;;;27.73;11.30;;;12.70;98.30;;;;;;6240308;23;20567;-80
2022/11/24 07:26:11;;;;;;;22.80;11.13;;;12.70;98.30;;;;;;6239982;23;20619;-79
2022/11/24 07:28:39;;;;;;;24.27;11.07;;;12.70;98.30;;;;;;6243657;23;20170;-80
2022/11/24 07:31:08;;;;;;;26.27;11.93;;;12.70;98.30;;;;;;6244542;23;20689;-78
2022/11/24 07:33:37;;;;;;;25.17;11.50;;;12.70;98.30;;;;;;6243450;23;20538;-79
2022/11/24 07:36:07;;;;;;;23.63;11.30;;;12.80;98.40;;;;;;6243935;23;20627;-79
2022/11/24 07:38:36;;;;;;;21.43;10.70;;;12.80;98.40;;;;;;6242545;23;20175;-81
2022/11/24 07:41:07;;;;;;;22.60;10.23;;;12.80;98.30;;;;;;6245409;23;20171;-80
2022/11/24 07:43:37;;;;;;;25.73;10.60;;;12.80;98.20;;;;;;6244993;23;20163;-81
2022/11/24 07:46:08;;;;;;;22.40;10.57;;;12.80;98.30;;;;;;6244202;23;20178;-79
2022/11/24 07:48:36;;;;;;;20.93;10.13;;;12.90;98.20;;;;;;6243614;23;20532;-79
2022/11/24 07:51:06;;;;;;;24.97;10.90;;;12.90;98.20;;;;;;6243349;23;20202;-80
2022/11/24 07:53:35;;;;;;;21.03;9.73;;;12.90;98.30;;;;;;6241717;23;20267;-79
2022/11/24 07:56:06;;;;;;;21.57;11.10;;;13.00;98.40;;;;;;6242778;23;20228;-80
2022/11/24 07:58:36;;;;;;;25.77;12.27;;;13.00;98.40;;;;;;6242663;23;20155;-81
2022/11/24 08:01:12;;;;;;;23.80;11.20;;;12.90;98.30;;;;;;6239925;23;20629;-79
2022/11/24 08:03:41;;;;;;;22.93;10.83;;;13.00;98.30;;;;;;6243676;23;20177;-79
2022/11/24 08:06:10;;;;;;;21.87;10.50;;;13.00;98.40;;;;;;6241430;23;20722;-82
2022/11/24 08:08:58;;;;;;;28.43;11.93;;;13.00;98.40;;;;;;6240957;23;20209;-80
2022/11/24 08:11:30;;;;;;;30.10;11.03;;;13.00;98.40;;;;;;6242297;23;20198;-80
2022/11/24 08:13:58;;;;;;;25.43;11.27;;;12.90;98.30;;;;;;6241336;23;20166;-81
2022/11/24 08:16:27;;;;;;;26.67;11.07;;;13.00;98.30;;;;;;6241301;23;20188;-79
2022/11/24 08:18:56;;;;;;;32.47;11.50;;;13.00;98.30;;;;;;6243889;23;20178;-80
2022/11/24 08:21:25;;;;;;;33.83;12.07;;;12.90;98.30;;;;;;6243154;23;20171;-81
2022/11/24 08:23:57;;;;;;;31.20;12.30;;;12.90;98.40;;;;;;6241350;23;20224;-79
2022/11/24 08:26:26;;;;;;;27.70;11.17;;;12.90;98.40;;;;;;6242545;23;20167;-81
2022/11/24 08:28:57;;;;;;;26.00;11.50;;;12.90;98.40;;;;;;6242355;23;20248;-79
2022/11/24 08:31:31;;;;;;;28.30;11.47;;;12.80;98.40;;;;;;6242768;23;20516;-81
2022/11/24 08:34:02;;;;;;;25.63;10.53;;;12.80;98.50;;;;;;6241807;23;20154;-80
2022/11/24 08:36:30;;;;;;;27.67;10.97;;;12.80;98.50;;;;;;6242896;23;20171;-80
2022/11/24 08:39:00;;;;;;;26.03;10.43;;;12.70;98.60;;;;;;6241167;23;20167;-79
2022/11/24 08:41:29;;;;;;;33.20;11.93;;;12.70;98.60;;;;;;6241210;23;20170;-80
2022/11/24 08:43:59;;;;;;;21.20;9.33;;;12.70;98.70;;;;;;6245265;23;20170;-79
2022/11/24 08:46:27;;;;;;;22.00;9.13;;;12.70;98.70;;;;;;6243123;23;20194;-81
2022/11/24 08:48:56;;;;;;;25.60;10.10;;;12.60;98.70;;;;;;6245298;23;20189;-79
2022/11/24 08:51:26;;;;;;;28.07;10.70;;;12.60;98.70;;;;;;6243193;23;20197;-79
2022/11/24 08:53:56;;;;;;;25.20;10.03;;;12.70;98.80;;;;;;6245238;23;20178;-80
2022/11/24 08:56:26;;;;;;;27.10;11.00;;;12.70;98.80;;;;;;6242640;23;20602;-78
2022/11/24 08:58:54;;;;;;;23.27;10.50;;;12.60;98.90;;;;;;6244570;23;20243;-79
2022/11/24 09:01:24;;;;;;;22.17;10.90;;;12.60;99.00;;;;;;6244082;23;20170;-79
2022/11/24 09:03:53;;;;;;;29.53;11.23;;;12.70;99.00;;;;;;6242105;23;20166;-78
2022/11/24 09:06:24;;;;;;;27.13;10.47;;;12.70;99.00;;;;;;6243004;23;20181;-77
2022/11/24 09:08:54;;;;;;;26.90;11.83;;;12.70;99.10;;;;;;6243943;23;20185;-78
2022/11/24 09:11:24;;;;;;;24.87;10.00;;;12.70;99.10;;;;;;6240294;23;20232;-77
2022/11/24 09:13:52;;;;;;;28.93;9.93;;;12.70;99.10;;;;;;6244885;23;20171;-79
2022/11/24 09:16:24;;;;;;;24.47;10.30;;;12.70;99.10;;;;;;6244870;23;21007;-82
2022/11/24 09:18:59;;;;;;;26.77;10.10;;;12.70;99.00;;;;;;6242852;23;20264;-78
2022/11/24 09:21:28;;;;;;;26.47;10.60;;;12.70;99.10;;;;;;6244051;23;20551;-80
2022/11/24 09:23:57;;;;;;;27.53;11.57;;;12.70;99.00;;;;;;6239886;23;20175;-78
2022/11/24 09:26:27;;;;;;;25.80;11.13;;;12.70;99.00;;;;;;6242540;23;20175;-78
2022/11/24 09:28:57;;;;;;;28.45;11.73;;;12.70;99.10;;;;;;6241755;23;20382;-79
2022/11/24 09:31:27;;;;;;;24.77;10.93;;;12.70;99.20;;;;;;6244497;23;20190;-79
2022/11/24 09:33:58;;;;;;;24.93;10.47;;;12.80;99.10;;;;;;6242826;23;20162;-77
2022/11/24 09:36:27;;;;;;;24.07;10.43;;;12.80;99.00;;;;;;6241598;23;20675;-81
2022/11/24 09:38:56;;;;;;;28.13;12.10;;;12.80;98.90;;;;;;6241212;23;20589;-76
2022/11/24 09:41:39;;;;;;;28.10;11.23;;;12.80;98.90;;;;;;6239135;23;20198;-78
2022/11/24 09:44:25;;;;;;;24.93;10.87;;;12.80;98.90;;;;;;6242704;23;20159;-77
2022/11/24 09:47:02;;;;;;;24.73;10.60;;;12.90;99.00;;;;;;6244038;23;20158;-79
2022/11/24 09:49:37;;;;;;;27.90;11.00;;;12.90;98.90;;;;;;6241812;23;20204;-78
2022/11/24 09:52:13;;;;;;;25.37;11.67;;;12.90;98.80;;;;;;6243912;23;20557;-77
2022/11/24 09:54:50;;;;;;;27.20;11.67;;;12.90;98.80;;;;;;6242493;23;20193;-76
2022/11/24 09:57:22;;;;;;;23.17;9.83;;;12.90;98.80;;;;;;6246031;23;20216;-76
2022/11/24 09:59:50;;;;;;;30.70;11.80;;;12.90;98.60;;;;;;6244587;23;20646;-76
2022/11/24 10:02:18;;;;;;;27.30;11.07;;;13.00;98.70;;;;;;6244023;23;20170;-77
2022/11/24 10:04:51;;;;;;;24.97;9.70;;;13.10;98.80;;;;;;6242199;23;20209;-80
2022/11/24 10:07:27;;;;;;;25.67;11.20;;;13.10;98.50;;;;;;6244531;23;20585;-76
2022/11/24 10:10:02;;;;;;;26.20;11.70;;;13.10;98.20;;;;;;6245681;23;20158;-76
2022/11/24 10:12:51;;;;;;;24.50;10.73;;;13.10;98.10;;;;;;6245752;23;20197;-77
2022/11/24 10:15:41;;;;;;;29.17;11.17;;;13.20;97.80;;;;;;6242730;23;20163;-77
2022/11/24 10:18:37;;;;;;;23.33;11.13;;;13.20;97.70;;;;;;6241280;23;20621;-78
2022/11/24 10:21:29;;;;;;;21.33;10.50;;;13.10;97.40;;;;;;6241795;23;20191;-77
2022/11/24 10:24:15;;;;;;;22.70;10.03;;;13.10;97.40;;;;;;6238762;23;20170;-78
2022/11/24 10:26:50;;;;;;;26.27;11.70;;;13.00;97.50;;;;;;6245610;23;20186;-81
2022/11/24 10:29:24;;;;;;;23.30;10.30;;;13.10;97.50;;;;;;6243708;23;20159;-78
2022/11/24 10:31:56;;;;;;;24.67;10.97;;;13.10;97.50;;;;;;6243921;23;20761;-75
2022/11/24 10:34:29;;;;;;;25.00;10.53;;;13.10;97.40;;;;;;6245129;23;20163;-77
2022/11/24 10:37:05;;;;;;;22.93;11.57;;;13.10;97.30;;;;;;6244944;23;20162;-77
2022/11/24 10:39:39;;;;;;;21.53;9.97;;;13.10;97.20;;;;;;6242409;23;20611;-76
2022/11/24 10:42:12;;;;;;;21.00;10.43;;;13.00;96.80;;;;;;6241739;23;20537;-77
2022/11/24 10:44:42;;;;;;;22.67;9.70;;;13.00;96.80;;;;;;6242970;23;20159;-76
2022/11/24 10:47:19;;;;;;;25.47;10.37;;;13.10;97.00;;;;;;6241381;23;20173;-76
2022/11/24 10:49:55;;;;;;;24.57;11.07;;;13.10;97.00;;;;;;6244514;23;20159;-77
2022/11/24 10:52:26;;;;;;;25.67;11.67;;;13.10;97.00;;;;;;6242869;23;20198;-78
2022/11/24 10:54:56;;;;;;;23.40;10.77;;;13.10;97.10;;;;;;6244274;23;20159;-80
2022/11/24 10:57:30;;;;;;;25.47;10.50;;;13.10;96.80;;;;;;6245793;23;20161;-79
2022/11/24 10:59:58;;;;;;;27.70;12.00;;;13.10;96.70;;;;;;6243284;23;20159;-76
2022/11/24 11:02:38;;;;;;;28.27;11.90;;;13.10;96.90;;;;;;6244493;23;20502;-76
2022/11/24 11:05:36;;;;;;;27.23;12.93;;;13.10;96.90;;;;;;6245153;23;20158;-79
2022/11/24 11:08:19;;;;;;;29.07;12.10;;;13.00;96.80;;;;;;6244436;23;20168;-77
2022/11/24 11:10:49;;;;;;;24.40;12.07;;;13.10;96.70;;;;;;6244800;23;20158;-77
2022/11/24 11:13:28;;;;;;;26.37;13.07;;;13.10;96.70;;;;;;6246014;23;20204;-79
2022/11/24 11:15:58;;;;;;;31.57;13.70;;;13.10;96.50;;;;;;6244137;23;20607;-78
2022/11/24 11:18:36;;;;;;;25.47;12.13;;;13.20;96.50;;;;;;6244860;23;20159;-78
2022/11/24 11:21:05;;;;;;;23.50;12.23;;;13.20;96.30;;;;;;6244934;23;20174;-77
2022/11/24 11:23:37;;;;;;;25.40;12.47;;;13.20;96.30;;;;;;6243037;23;20174;-80
2022/11/24 11:26:20;;;;;;;26.57;13.13;;;13.30;96.20;;;;;;6243443;23;20470;-77
2022/11/24 11:29:00;;;;;;;26.03;11.97;;;13.30;96.20;;;;;;6242118;23;20163;-80
2022/11/24 11:32:01;;;;;;;25.47;12.07;;;13.30;95.80;;;;;;6241912;23;20237;-81
2022/11/24 11:34:51;;;;;;;22.67;11.03;;;13.40;95.70;;;;;;6241637;23;20252;-80
2022/11/24 11:37:20;;;;;;;24.87;13.17;;;13.40;95.60;;;;;;6243236;23;20181;-78
2022/11/24 11:39:51;;;;;;;22.00;12.23;;;13.50;95.60;;;;;;6243686;23;20644;-79
2022/11/24 11:42:26;;;;;;;23.80;11.43;;;13.50;95.60;;;;;;6239519;23;20159;-79
2022/11/24 11:45:18;;;;;;;22.83;10.80;;;13.50;95.40;;;;;;6238454;23;20169;-79
2022/11/24 11:47:52;;;;;;;22.80;11.17;;;13.60;95.60;;;;;;6235789;23;20212;-79
2022/11/24 11:50:27;;;;;;;24.37;10.00;;;13.70;95.70;;;;;;6240645;23;20163;-81
2022/11/24 11:53:06;;;;;;;27.00;10.50;;;13.70;95.50;;;;;;6242093;23;20190;-80
2022/11/24 11:55:50;;;;;;;18.23;9.43;;;13.60;95.20;;;;;;6239614;23;20275;-80
2022/11/24 11:58:32;;;;;;;19.10;9.63;;;13.60;95.20;;;;;;6242158;23;20162;-80
2022/11/24 12:01:07;;;;;;;17.83;8.73;;;13.70;95.10;;;;;;6241630;23;20532;-77
2022/11/24 12:03:48;;;;;;;15.73;8.23;;;13.60;94.70;;;;;;6240958;23;20159;-81
2022/11/24 12:06:31;;;;;;;13.57;7.10;;;13.70;94.80;;;;;;6240619;23;20155;-81
2022/11/24 12:09:09;;;;;;;18.80;7.53;;;13.70;94.60;;;;;;6241079;23;20162;-81
2022/11/24 12:12:08;;;;;;;15.67;7.27;;;13.80;94.60;;;;;;6241453;23;20194;-81
2022/11/24 12:14:44;;;;;;;14.70;7.33;;;13.90;94.70;;;;;;6242571;23;20170;-82
2022/11/24 12:17:21;;;;;;;11.77;6.37;;;13.90;94.40;;;;;;6240304;23;20162;-79
2022/11/24 12:20:01;;;;;;;10.67;6.40;;;13.90;94.50;;;;;;6242266;23;20154;-81
2022/11/24 12:22:42;;;;;;;7.97;5.13;;;13.90;94.30;;;;;;6240253;23;20158;-81
2022/11/24 12:25:24;;;;;;;6.73;4.50;;;13.90;93.90;;;;;;6241605;23;20600;-77
2022/11/24 12:28:05;;;;;;;5.60;3.90;;;13.90;93.60;;;;;;6243015;23;20158;-78
2022/11/24 12:30:42;;;;;;;5.47;3.60;;;13.80;93.30;;;;;;6242239;23;20166;-80
2022/11/24 12:33:24;;;;;;;7.20;3.73;;;13.80;93.20;;;;;;6241055;23;20232;-80
2022/11/24 12:36:02;;;;;;;5.80;3.33;;;13.80;92.80;;;;;;6241471;23;20190;-79
2022/11/24 12:38:48;;;;;;;6.53;4.30;;;13.70;93.00;;;;;;6238664;23;20169;-79
2022/11/24 12:41:26;;;;;;;5.17;3.90;;;13.70;92.90;;;;;;6244107;23;20236;-77
2022/11/24 12:44:30;;;;;;;7.73;3.97;;;13.60;92.70;;;;;;6243130;23;20159;-79
2022/11/24 12:47:08;;;;;;;8.77;4.03;;;13.60;92.90;;;;;;6239732;23;20162;-80
2022/11/24 12:49:45;;;;;;;8.87;4.03;;;13.60;93.00;;;;;;6243637;23;20603;-80
2022/11/24 12:52:21;;;;;;;3.30;2.83;;;13.50;92.90;;;;;;6243374;23;20198;-79